»·PEaware :: N71PC KTUS-KNYL

N71PC :: KTUS-KNYL

FLIGHT INFORMATION

Flight Status: Arrived
Operator: Privately registered:
United States
More flights under this callsign
Pilot: James B. (27133)
Aircraft: BEECH AIRCRAFT BARON
(BE58)
More flights by this aircraft type
Origin: KTUS Tucson Intl
United States
Destination: KNYL Yuma MCAS/Yuma Intl
United States
More flights between these airports :: More routes between these airports
Route: +TUS8 GBN V66 BZA
File this flight plan on PilotEdge
Remarks:
Altitude:
(Current/Filed)
12,000ft
Speed:
(Current/Filed)
170kts
Departed: 04-Dec-19 03:32 PM
Arrived: 04-Dec-19 05:03 PM
Distance/Time
Traveled:
189nm/1:31
Distance/Time
To Go:
Arrived

Flight Plot

Page will automatically refresh every two minutes.


Map Options




Map Legend


Flown Route
Filed Route
Departure Airport
Arrival Airport
Navaid (VOR, NDB)
Fix

Horizontal Profiles

Position Reports

Time Latitude Longitude Heading Altitude Ground
Speed
04-Dec-19 15:16 32.123037 -110.956634 317 2646ft 0kts
04-Dec-19 15:17 32.123037 -110.956634 317 2646ft 0kts
04-Dec-19 15:18 32.123037 -110.956634 317 2646ft 0kts
04-Dec-19 15:19 32.123037 -110.956634 317 2646ft 0kts
04-Dec-19 15:20 32.123037 -110.956634 317 2646ft 0kts
04-Dec-19 15:21 32.123037 -110.956634 317 2646ft 0kts
04-Dec-19 15:22 32.123037 -110.956634 317 2646ft 0kts
04-Dec-19 15:23 32.123037 -110.956634 317 2646ft 0kts
04-Dec-19 15:24 32.123037 -110.956634 317 2646ft 0kts
04-Dec-19 15:25 32.123037 -110.956634 317 2646ft 0kts
04-Dec-19 15:26 32.123170 -110.956633 52 2646ft 5kts
04-Dec-19 15:27 32.124558 -110.954090 48 2646ft 9kts
04-Dec-19 15:28 32.123456 -110.952887 179 2646ft 0kts
04-Dec-19 15:29 32.123231 -110.950980 147 2646ft 11kts
04-Dec-19 15:30 32.120749 -110.948076 134 2646ft 13kts
04-Dec-19 15:32 32.106488 -110.929595 135 2834ft 121kts
04-Dec-19 15:33 32.101211 -110.922331 136 3152ft 112kts
04-Dec-19 15:34 32.076206 -110.899306 202 4153ft 123kts
04-Dec-19 15:35 32.086273 -110.933341 311 5238ft 136kts
04-Dec-19 15:36 32.111910 -110.970534 297 6330ft 162kts
04-Dec-19 15:37 32.131096 -111.020041 290 7340ft 172kts
04-Dec-19 15:38 32.148821 -111.071079 288 8180ft 167kts
04-Dec-19 15:39 32.166154 -111.121776 287 8992ft 173kts
04-Dec-19 15:40 32.184079 -111.174278 286 9672ft 177kts
04-Dec-19 15:41 32.201490 -111.225149 285 10220ft 156kts
04-Dec-19 15:42 32.217472 -111.272319 284 10869ft 160kts
04-Dec-19 15:43 32.233232 -111.318278 282 11380ft 138kts
04-Dec-19 15:44 32.246521 -111.357637 280 11925ft 121kts
04-Dec-19 15:45 32.259754 -111.397170 282 12020ft 150kts
04-Dec-19 15:46 32.275368 -111.442688 281 11978ft 132kts
04-Dec-19 15:47 32.293965 -111.483484 292 12012ft 161kts
04-Dec-19 15:48 32.318281 -111.526392 293 11995ft 157kts
04-Dec-19 15:49 32.342513 -111.569405 293 11992ft 159kts
04-Dec-19 15:49 32.361681 -111.603349 293 12001ft 156kts
04-Dec-19 15:51 32.389587 -111.652927 292 11998ft 153kts
04-Dec-19 15:52 32.414156 -111.696854 293 11989ft 171kts
04-Dec-19 15:52 32.435829 -111.735342 294 11985ft 172kts
04-Dec-19 15:54 32.465820 -111.788577 293 11969ft 154kts
04-Dec-19 15:54 32.484524 -111.821916 292 11962ft 136kts
04-Dec-19 15:55 32.503255 -111.855353 289 11942ft 104kts
04-Dec-19 15:57 32.518203 -111.882353 285 11609ft 77kts
04-Dec-19 15:57 32.528430 -111.900611 284 11939ft 76kts
04-Dec-19 15:58 32.542928 -111.926911 290 11996ft 118kts
04-Dec-19 15:59 32.563304 -111.963319 292 11987ft 142kts
04-Dec-19 16:00 32.585995 -112.003885 292 12002ft 151kts
04-Dec-19 16:01 32.609545 -112.046097 292 12002ft 154kts
04-Dec-19 16:02 32.633278 -112.088736 292 11994ft 155kts
04-Dec-19 16:03 32.657136 -112.131608 293 12001ft 156kts
04-Dec-19 16:04 32.681066 -112.174752 292 11998ft 157kts
04-Dec-19 16:05 32.705098 -112.218134 293 12007ft 157kts
04-Dec-19 16:06 32.729099 -112.261469 292 12000ft 158kts
04-Dec-19 16:07 32.753215 -112.305095 293 12021ft 160kts
04-Dec-19 16:08 32.778757 -112.351329 293 12021ft 167kts
04-Dec-19 16:09 32.805395 -112.399548 293 11995ft 168kts
04-Dec-19 16:10 32.830201 -112.444498 293 12003ft 158kts
04-Dec-19 16:11 32.854202 -112.488188 293 11996ft 157kts
04-Dec-19 16:12 32.878057 -112.531616 292 12003ft 156kts
04-Dec-19 16:13 32.901826 -112.574895 293 12001ft 156kts
04-Dec-19 16:14 32.925570 -112.618209 293 12002ft 156kts
04-Dec-19 16:15 32.949277 -112.661482 292 12000ft 156kts
04-Dec-19 16:16 32.951424 -112.707644 257 12016ft 141kts
04-Dec-19 16:17 32.945529 -112.754086 256 12015ft 142kts
04-Dec-19 16:18 32.939315 -112.800596 255 12013ft 142kts
04-Dec-19 16:19 32.933059 -112.847032 255 12019ft 142kts
04-Dec-19 16:20 32.926797 -112.893385 255 12014ft 141kts
04-Dec-19 16:21 32.920465 -112.940058 255 12015ft 142kts
04-Dec-19 16:22 32.914126 -112.986683 255 12016ft 142kts
04-Dec-19 16:23 32.907767 -113.033233 255 12017ft 143kts
04-Dec-19 16:24 32.901378 -113.080010 255 12019ft 144kts
04-Dec-19 16:25 32.894971 -113.126740 255 12017ft 142kts
04-Dec-19 16:26 32.888567 -113.173315 255 12019ft 142kts
04-Dec-19 16:27 32.882115 -113.220006 255 12019ft 144kts
04-Dec-19 16:28 32.875603 -113.267119 255 12023ft 144kts
04-Dec-19 16:29 32.869060 -113.314268 255 12022ft 144kts
04-Dec-19 16:30 32.862484 -113.361520 255 12022ft 144kts
04-Dec-19 16:31 32.855941 -113.408455 254 12027ft 143kts
04-Dec-19 16:32 32.849342 -113.455545 254 11970ft 147kts
04-Dec-19 16:33 32.842046 -113.507285 255 11203ft 167kts
04-Dec-19 16:34 32.836808 -113.544591 255 10669ft 174kts
04-Dec-19 16:35 32.830545 -113.597662 260 10063ft 178kts
04-Dec-19 16:36 32.827724 -113.654217 259 9730ft 174kts
04-Dec-19 16:37 32.824289 -113.713291 260 8547ft 183kts
04-Dec-19 16:38 32.820639 -113.774482 260 7359ft 187kts
04-Dec-19 16:39 32.816907 -113.836700 261 6205ft 184kts
04-Dec-19 16:40 32.813477 -113.893664 260 6035ft 169kts
04-Dec-19 16:41 32.809950 -113.950219 260 5801ft 182kts
04-Dec-19 16:42 32.806584 -114.006023 259 5049ft 154kts
04-Dec-19 16:43 32.803261 -114.058538 259 5041ft 164kts
04-Dec-19 16:44 32.799847 -114.113114 259 5030ft 167kts
04-Dec-19 16:45 32.796469 -114.167162 259 5033ft 159kts
04-Dec-19 16:46 32.793158 -114.219299 258 5039ft 156kts
04-Dec-19 16:47 32.790485 -114.270893 261 5042ft 155kts
04-Dec-19 16:48 32.789084 -114.322934 261 4994ft 158kts
04-Dec-19 16:49 32.787731 -114.375063 261 5002ft 157kts
04-Dec-19 16:50 32.786400 -114.426936 261 4999ft 157kts
04-Dec-19 16:51 32.785100 -114.478884 261 5005ft 157kts
04-Dec-19 16:52 32.769594 -114.520324 206 5009ft 128kts
04-Dec-19 16:53 32.741257 -114.543262 254 4813ft 126kts
04-Dec-19 16:54 32.740557 -114.585961 261 5003ft 133kts
04-Dec-19 16:55 32.739901 -114.630407 261 5000ft 134kts
04-Dec-19 16:56 32.722886 -114.664764 221 5000ft 122kts
04-Dec-19 16:57 32.699759 -114.694630 221 4999ft 123kts
04-Dec-19 16:58 32.674500 -114.722562 186 4236ft 140kts
04-Dec-19 16:59 32.642076 -114.700222 141 2692ft 134kts
04-Dec-19 17:00 32.617709 -114.669852 108 1782ft 122kts
04-Dec-19 17:01 32.632875 -114.633595 39 419ft 122kts
04-Dec-19 17:02 32.644544 -114.620487 45 219ft 13kts
04-Dec-19 17:03 32.646125 -114.618012 94 219ft 3kts
04-Dec-19 17:04 32.645954 -114.617691 131 219ft 0kts

Navigation Log

Ident Type
Flight plan parsing failed, navigation log unavailable